Decatur Airport
KDEC : now visible

Airfield :











YOU CAN JOIN US ON...

 
LOGIN :

Register | Disclaimer

   EN    FR    IT 

 









Legend :    VFR   Marginal VFR   IFR   Intensive IFR   Very Intensive IFR
Visi :
Ceiling :
>= 8 km
>= 3000ft
5 to 8 km
1000 to 3000 ft
1500m to 5 km
500 to 1000 ft
800 to 1500m
200 to 500 ft
< 800m
< 200 ft
Symbols :   Thunderstorms  Fog  Heavy snow  Heavy precipitations  Wind > 20 kt






- Airport Elevation : 682 ft
- IATA code : DEC


KDEC - Decatur

CURRENT METAR :
  • 081854Z 21011KT 10SM CLR 27/09 A2968 RMK AO2 SLP046 T02720089

EXPIRED METARs :
  • 081754Z 15006KT 10SM CLR 26/09 A2972 RMK AO2 SLP059 T02610094 10261 20133 58019
  • 081654Z 13005KT 10SM CLR 24/11 A2975 RMK AO2 SLP070 T02440106

TAF KDEC
Valid from the 08 at 18:00 until the 09 at 18:00 UTC


081749Z 0818/0918 13005KT P6SM SKC
FM082200 23012KT P6SM VCTS SCT060CB BKN250
TEMPO 0823/0901 VRB20G30KT 2SM TSRAGS OVC050CB
FM090100 34016G25KT P6SM VCSH BKN060
FM090600 32013KT P6SM SKC
FM091600 29015G25KT P6SM SCT250



MET'MAP, your aeronautical weather chart ! - Copyright ORBIFLY December 2007 - Disclaimer

ORBIFLY MET'MAP TEAM :

Programming & Development : Alexandra Zaïnal
Concept & original design : Baudouin d'Aumeries
Assistance for programming : Marc-Olivier Méhu
Technical & hardware support : Manuel Goepfert

Contact : metmap@orbifly.com




SOURCES & CREDITS :

   NOAA       Earth
Advisory